sensor_id;sensor_type;location;lat;lon;timestamp;temperature;humidity
7248;DHT22;3665;51.034;13.642;2022-11-11T00:04:19;7.60;99.90
7248;DHT22;3665;51.034;13.642;2022-11-11T00:09:23;7.50;99.90
7248;DHT22;3665;51.034;13.642;2022-11-11T00:14:27;7.60;99.90
7248;DHT22;3665;51.034;13.642;2022-11-11T00:19:30;7.60;99.90
7248;DHT22;3665;51.034;13.642;2022-11-11T00:24:50;7.70;99.90
7248;DHT22;3665;51.034;13.642;2022-11-11T00:30:12;7.70;99.90
7248;DHT22;3665;51.034;13.642;2022-11-11T00:35:17;7.80;99.90
7248;DHT22;3665;51.034;13.642;2022-11-11T00:40:37;7.80;99.90
7248;DHT22;3665;51.034;13.642;2022-11-11T00:45:41;7.70;99.90
7248;DHT22;3665;51.034;13.642;2022-11-11T00:50:43;7.70;99.90
7248;DHT22;3665;51.034;13.642;2022-11-11T00:56:02;7.60;99.90
7248;DHT22;3665;51.034;13.642;2022-11-11T01:01:09;7.50;99.90
7248;DHT22;3665;51.034;13.642;2022-11-11T01:06:12;7.50;99.90
7248;DHT22;3665;51.034;13.642;2022-11-11T01:11:18;7.50;99.90
7248;DHT22;3665;51.034;13.642;2022-11-11T01:16:36;7.50;99.90
7248;DHT22;3665;51.034;13.642;2022-11-11T01:21:38;7.50;99.90
7248;DHT22;3665;51.034;13.642;2022-11-11T01:26:42;7.50;99.90
7248;DHT22;3665;51.034;13.642;2022-11-11T01:31:53;7.40;99.90
7248;DHT22;3665;51.034;13.642;2022-11-11T01:37:28;7.40;99.90
7248;DHT22;3665;51.034;13.642;2022-11-11T01:42:48;7.40;99.90
7248;DHT22;3665;51.034;13.642;2022-11-11T01:48:05;7.40;99.90
7248;DHT22;3665;51.034;13.642;2022-11-11T01:53:32;7.40;99.90
7248;DHT22;3665;51.034;13.642;2022-11-11T01:58:39;7.40;99.90
7248;DHT22;3665;51.034;13.642;2022-11-11T02:03:48;7.40;99.90
7248;DHT22;3665;51.034;13.642;2022-11-11T02:09:07;7.40;99.90
7248;DHT22;3665;51.034;13.642;2022-11-11T02:14:12;7.50;99.90
7248;DHT22;3665;51.034;13.642;2022-11-11T02:19:40;7.60;99.90
7248;DHT22;3665;51.034;13.642;2022-11-11T02:24:53;7.70;99.90
7248;DHT22;3665;51.034;13.642;2022-11-11T02:29:55;7.60;99.90
7248;DHT22;3665;51.034;13.642;2022-11-11T02:34:58;7.80;99.90
7248;DHT22;3665;51.034;13.642;2022-11-11T02:40:03;7.90;99.90
7248;DHT22;3665;51.034;13.642;2022-11-11T02:45:08;7.90;98.90
7248;DHT22;3665;51.034;13.642;2022-11-11T02:50:10;8.00;91.20
7248;DHT22;3665;51.034;13.642;2022-11-11T02:55:17;8.00;87.40
7248;DHT22;3665;51.034;13.642;2022-11-11T03:00:35;8.00;82.90
7248;DHT22;3665;51.034;13.642;2022-11-11T03:05:41;8.10;67.40
7248;DHT22;3665;51.034;13.642;2022-11-11T03:11:00;8.10;54.70
7248;DHT22;3665;51.034;13.642;2022-11-11T03:16:05;8.20;45.80
7248;DHT22;3665;51.034;13.642;2022-11-11T03:21:39;8.20;36.40
7248;DHT22;3665;51.034;13.642;2022-11-11T03:27:02;8.20;32.30
7248;DHT22;3665;51.034;13.642;2022-11-11T03:32:05;8.20;33.40
7248;DHT22;3665;51.034;13.642;2022-11-11T03:37:10;8.20;32.90
7248;DHT22;3665;51.034;13.642;2022-11-11T03:42:31;8.10;40.00
7248;DHT22;3665;51.034;13.642;2022-11-11T03:47:52;8.10;34.10
7248;DHT22;3665;51.034;13.642;2022-11-11T03:53:11;8.10;37.10
7248;DHT22;3665;51.034;13.642;2022-11-11T03:58:29;8.10;34.50
7248;DHT22;3665;51.034;13.642;2022-11-11T04:03:31;8.20;30.30
7248;DHT22;3665;51.034;13.642;2022-11-11T04:08:51;8.10;28.90
7248;DHT22;3665;51.034;13.642;2022-11-11T04:14:14;7.90;29.10
7248;DHT22;3665;51.034;13.642;2022-11-11T04:19:41;8.20;30.70
7248;DHT22;3665;51.034;13.642;2022-11-11T04:25:00;8.00;47.60
7248;DHT22;3665;51.034;13.642;2022-11-11T04:30:36;7.90;39.00
7248;DHT22;3665;51.034;13.642;2022-11-11T04:35:53;7.90;38.30
7248;DHT22;3665;51.034;13.642;2022-11-11T04:40:56;7.80;40.10
7248;DHT22;3665;51.034;13.642;2022-11-11T04:46:14;7.80;40.60
7248;DHT22;3665;51.034;13.642;2022-11-11T04:51:19;7.80;34.70
7248;DHT22;3665;51.034;13.642;2022-11-11T04:56:41;7.80;36.60
7248;DHT22;3665;51.034;13.642;2022-11-11T05:02:00;7.80;32.00
7248;DHT22;3665;51.034;13.642;2022-11-11T05:07:20;7.80;28.80
7248;DHT22;3665;51.034;13.642;2022-11-11T05:12:40;7.70;23.00
7248;DHT22;3665;51.034;13.642;2022-11-11T05:17:44;7.90;19.10
7248;DHT22;3665;51.034;13.642;2022-11-11T05:23:11;7.90;16.80
7248;DHT22;3665;51.034;13.642;2022-11-11T05:28:14;7.90;13.50
7248;DHT22;3665;51.034;13.642;2022-11-11T05:33:21;7.80;15.40
7248;DHT22;3665;51.034;13.642;2022-11-11T05:38:32;7.70;18.40
7248;DHT22;3665;51.034;13.642;2022-11-11T05:48:40;7.50;20.10
7248;DHT22;3665;51.034;13.642;2022-11-11T05:54:02;7.60;18.90
7248;DHT22;3665;51.034;13.642;2022-11-11T05:59:05;7.70;15.60
7248;DHT22;3665;51.034;13.642;2022-11-11T06:04:08;7.80;11.60
7248;DHT22;3665;51.034;13.642;2022-11-11T06:09:49;7.90;7.30
7248;DHT22;3665;51.034;13.642;2022-11-11T06:15:05;8.00;3.90
7248;DHT22;3665;51.034;13.642;2022-11-11T06:20:12;8.20;1.00
7248;DHT22;3665;51.034;13.642;2022-11-11T06:25:15;8.20;1.00
7248;DHT22;3665;51.034;13.642;2022-11-11T06:30:51;8.30;1.00
7248;DHT22;3665;51.034;13.642;2022-11-11T06:35:55;8.30;1.00
7248;DHT22;3665;51.034;13.642;2022-11-11T06:40:57;8.20;1.00
7248;DHT22;3665;51.034;13.642;2022-11-11T06:46:00;8.40;1.00
7248;DHT22;3665;51.034;13.642;2022-11-11T06:51:05;8.50;1.00
7248;DHT22;3665;51.034;13.642;2022-11-11T06:56:08;8.60;1.00
7248;DHT22;3665;51.034;13.642;2022-11-11T07:01:12;8.70;1.00
7248;DHT22;3665;51.034;13.642;2022-11-11T07:06:20;8.90;1.00
7248;DHT22;3665;51.034;13.642;2022-11-11T07:11:45;9.10;1.00
7248;DHT22;3665;51.034;13.642;2022-11-11T07:16:58;9.30;1.00
7248;DHT22;3665;51.034;13.642;2022-11-11T07:22:18;9.40;1.00
7248;DHT22;3665;51.034;13.642;2022-11-11T07:27:20;9.50;1.00
7248;DHT22;3665;51.034;13.642;2022-11-11T07:32:25;9.70;1.00
7248;DHT22;3665;51.034;13.642;2022-11-11T07:37:32;9.90;1.00
7248;DHT22;3665;51.034;13.642;2022-11-11T07:42:35;10.10;1.00
7248;DHT22;3665;51.034;13.642;2022-11-11T07:47:37;10.30;1.00
7248;DHT22;3665;51.034;13.642;2022-11-11T07:52:47;10.50;1.00
7248;DHT22;3665;51.034;13.642;2022-11-11T07:58:00;10.80;1.00
7248;DHT22;3665;51.034;13.642;2022-11-11T08:03:05;11.10;1.00
7248;DHT22;3665;51.034;13.642;2022-11-11T08:08:10;11.40;1.00
7248;DHT22;3665;51.034;13.642;2022-11-11T08:13:12;11.50;1.00
7248;DHT22;3665;51.034;13.642;2022-11-11T08:18:32;11.60;1.00
7248;DHT22;3665;51.034;13.642;2022-11-11T08:29:00;11.70;1.00
7248;DHT22;3665;51.034;13.642;2022-11-11T08:34:02;11.70;1.00
7248;DHT22;3665;51.034;13.642;2022-11-11T08:39:04;11.50;1.00
7248;DHT22;3665;51.034;13.642;2022-11-11T08:44:08;11.40;1.00
7248;DHT22;3665;51.034;13.642;2022-11-11T08:49:13;11.40;1.00
7248;DHT22;3665;51.034;13.642;2022-11-11T08:54:15;11.40;1.00
7248;DHT22;3665;51.034;13.642;2022-11-11T08:59:22;11.60;1.00
7248;DHT22;3665;51.034;13.642;2022-11-11T09:04:23;11.80;1.00
7248;DHT22;3665;51.034;13.642;2022-11-11T09:09:46;12.10;1.00
7248;DHT22;3665;51.034;13.642;2022-11-11T09:14:49;12.50;1.00
7248;DHT22;3665;51.034;13.642;2022-11-11T09:20:01;12.80;1.00
7248;DHT22;3665;51.034;13.642;2022-11-11T09:25:12;13.20;1.00
7248;DHT22;3665;51.034;13.642;2022-11-11T09:30:18;13.50;1.00
7248;DHT22;3665;51.034;13.642;2022-11-11T09:35:20;13.70;1.00
7248;DHT22;3665;51.034;13.642;2022-11-11T09:40:26;14.10;1.00
7248;DHT22;3665;51.034;13.642;2022-11-11T09:45:36;14.40;1.00
7248;DHT22;3665;51.034;13.642;2022-11-11T09:50:51;14.40;1.00
7248;DHT22;3665;51.034;13.642;2022-11-11T09:56:13;14.30;1.00
7248;DHT22;3665;51.034;13.642;2022-11-11T10:01:45;14.00;1.00
7248;DHT22;3665;51.034;13.642;2022-11-11T10:06:49;13.80;1.00
7248;DHT22;3665;51.034;13.642;2022-11-11T10:12:02;13.40;1.00
7248;DHT22;3665;51.034;13.642;2022-11-11T10:17:31;13.30;1.00
7248;DHT22;3665;51.034;13.642;2022-11-11T10:22:42;13.00;1.00
7248;DHT22;3665;51.034;13.642;2022-11-11T10:28:01;12.90;1.00
7248;DHT22;3665;51.034;13.642;2022-11-11T10:33:19;13.10;1.00
7248;DHT22;3665;51.034;13.642;2022-11-11T10:38:55;13.40;1.00
7248;DHT22;3665;51.034;13.642;2022-11-11T10:44:18;13.70;1.00
7248;DHT22;3665;51.034;13.642;2022-11-11T10:49:32;13.70;1.00
7248;DHT22;3665;51.034;13.642;2022-11-11T10:55:06;13.80;1.00
7248;DHT22;3665;51.034;13.642;2022-11-11T11:00:12;13.70;1.00
7248;DHT22;3665;51.034;13.642;2022-11-11T11:05:33;13.60;1.00
7248;DHT22;3665;51.034;13.642;2022-11-11T11:10:54;13.50;1.00
7248;DHT22;3665;51.034;13.642;2022-11-11T11:16:16;13.70;1.00
7248;DHT22;3665;51.034;13.642;2022-11-11T11:21:50;13.90;1.00
7248;DHT22;3665;51.034;13.642;2022-11-11T11:26:57;14.20;1.00
7248;DHT22;3665;51.034;13.642;2022-11-11T11:32:14;14.20;1.00
7248;DHT22;3665;51.034;13.642;2022-11-11T11:37:35;14.20;1.00
7248;DHT22;3665;51.034;13.642;2022-11-11T11:43:23;14.20;1.00
7248;DHT22;3665;51.034;13.642;2022-11-11T11:48:27;14.20;1.00
7248;DHT22;3665;51.034;13.642;2022-11-11T11:54:35;14.20;1.00
7248;DHT22;3665;51.034;13.642;2022-11-11T11:59:40;14.20;1.00
7248;DHT22;3665;51.034;13.642;2022-11-11T12:05:03;14.30;1.00
7248;DHT22;3665;51.034;13.642;2022-11-11T12:10:41;14.50;1.00
7248;DHT22;3665;51.034;13.642;2022-11-11T12:15:59;14.90;1.00
7248;DHT22;3665;51.034;13.642;2022-11-11T12:21:13;14.80;1.00
7248;DHT22;3665;51.034;13.642;2022-11-11T12:26:21;14.80;1.00
7248;DHT22;3665;51.034;13.642;2022-11-11T12:31:43;15.00;1.00
7248;DHT22;3665;51.034;13.642;2022-11-11T12:37:06;15.10;1.00
7248;DHT22;3665;51.034;13.642;2022-11-11T12:42:28;15.20;1.00
7248;DHT22;3665;51.034;13.642;2022-11-11T12:47:45;15.10;1.00
7248;DHT22;3665;51.034;13.642;2022-11-11T12:53:22;15.10;1.00
7248;DHT22;3665;51.034;13.642;2022-11-11T12:58:56;15.00;1.00
7248;DHT22;3665;51.034;13.642;2022-11-11T13:10:07;14.80;1.00
7248;DHT22;3665;51.034;13.642;2022-11-11T13:15:22;14.80;1.00
7248;DHT22;3665;51.034;13.642;2022-11-11T13:20:45;14.70;1.00
7248;DHT22;3665;51.034;13.642;2022-11-11T13:26:03;14.60;1.00
7248;DHT22;3665;51.034;13.642;2022-11-11T13:31:29;14.60;1.00
7248;DHT22;3665;51.034;13.642;2022-11-11T13:36:50;14.60;1.00
7248;DHT22;3665;51.034;13.642;2022-11-11T13:42:00;14.50;1.00
7248;DHT22;3665;51.034;13.642;2022-11-11T13:47:07;14.20;1.00
7248;DHT22;3665;51.034;13.642;2022-11-11T13:52:26;14.00;1.00
7248;DHT22;3665;51.034;13.642;2022-11-11T13:57:47;13.80;1.00
7248;DHT22;3665;51.034;13.642;2022-11-11T14:08:59;13.30;1.00
7248;DHT22;3665;51.034;13.642;2022-11-11T14:14:45;13.00;1.00
7248;DHT22;3665;51.034;13.642;2022-11-11T14:19:55;12.70;1.00
7248;DHT22;3665;51.034;13.642;2022-11-11T14:25:19;12.40;1.00
7248;DHT22;3665;51.034;13.642;2022-11-11T14:30:48;12.10;1.00
7248;DHT22;3665;51.034;13.642;2022-11-11T14:35:57;12.00;1.00
7248;DHT22;3665;51.034;13.642;2022-11-11T14:41:44;11.70;1.00
7248;DHT22;3665;51.034;13.642;2022-11-11T14:52:29;11.20;1.00
7248;DHT22;3665;51.034;13.642;2022-11-11T14:57:49;11.00;1.00
7248;DHT22;3665;51.034;13.642;2022-11-11T15:03:06;10.80;1.00
7248;DHT22;3665;51.034;13.642;2022-11-11T15:08:16;10.50;1.00
7248;DHT22;3665;51.034;13.642;2022-11-11T15:14:01;10.20;2.80
7248;DHT22;3665;51.034;13.642;2022-11-11T15:25:30;9.70;27.30
7248;DHT22;3665;51.034;13.642;2022-11-11T15:30:50;9.50;40.50
7248;DHT22;3665;51.034;13.642;2022-11-11T15:35:59;9.40;79.30
7248;DHT22;3665;51.034;13.642;2022-11-11T15:41:21;9.10;99.90
7248;DHT22;3665;51.034;13.642;2022-11-11T15:46:39;8.90;99.90
7248;DHT22;3665;51.034;13.642;2022-11-11T15:51:55;8.70;99.90
7248;DHT22;3665;51.034;13.642;2022-11-11T15:56:58;8.50;99.90
7248;DHT22;3665;51.034;13.642;2022-11-11T16:02:06;8.40;99.90
7248;DHT22;3665;51.034;13.642;2022-11-11T16:07:42;8.30;99.90
7248;DHT22;3665;51.034;13.642;2022-11-11T16:13:01;8.30;99.90
7248;DHT22;3665;51.034;13.642;2022-11-11T16:18:20;8.60;95.50
7248;DHT22;3665;51.034;13.642;2022-11-11T16:28:41;8.50;57.40
7248;DHT22;3665;51.034;13.642;2022-11-11T16:33:46;8.20;75.90
7248;DHT22;3665;51.034;13.642;2022-11-11T16:38:48;8.00;99.90
7248;DHT22;3665;51.034;13.642;2022-11-11T16:43:52;8.10;99.90
7248;DHT22;3665;51.034;13.642;2022-11-11T16:48:58;8.40;99.90
7248;DHT22;3665;51.034;13.642;2022-11-11T16:54:07;8.40;99.90
7248;DHT22;3665;51.034;13.642;2022-11-11T16:59:23;8.30;99.90
7248;DHT22;3665;51.034;13.642;2022-11-11T17:04:48;8.20;99.90
7248;DHT22;3665;51.034;13.642;2022-11-11T17:10:18;8.30;89.80
7248;DHT22;3665;51.034;13.642;2022-11-11T17:15:21;8.80;26.70
7248;DHT22;3665;51.034;13.642;2022-11-11T17:20:25;9.00;17.20
7248;DHT22;3665;51.034;13.642;2022-11-11T17:25:27;8.80;12.90
7248;DHT22;3665;51.034;13.642;2022-11-11T17:30:34;8.60;16.60
7248;DHT22;3665;51.034;13.642;2022-11-11T17:35:38;8.20;39.90
7248;DHT22;3665;51.034;13.642;2022-11-11T17:40:43;7.90;99.90
7248;DHT22;3665;51.034;13.642;2022-11-11T17:45:45;7.60;99.90
7248;DHT22;3665;51.034;13.642;2022-11-11T17:50:49;7.30;99.90
7248;DHT22;3665;51.034;13.642;2022-11-11T17:55:51;7.20;99.90
7248;DHT22;3665;51.034;13.642;2022-11-11T18:01:05;7.30;99.90
7248;DHT22;3665;51.034;13.642;2022-11-11T18:06:19;7.40;92.90
7248;DHT22;3665;51.034;13.642;2022-11-11T18:11:21;7.90;27.30
7248;DHT22;3665;51.034;13.642;2022-11-11T18:16:24;8.30;6.20
7248;DHT22;3665;51.034;13.642;2022-11-11T18:21:28;8.50;1.00
7248;DHT22;3665;51.034;13.642;2022-11-11T18:26:34;8.60;1.00
7248;DHT22;3665;51.034;13.642;2022-11-11T18:31:36;8.80;1.00
7248;DHT22;3665;51.034;13.642;2022-11-11T18:36:40;8.80;1.00
7248;DHT22;3665;51.034;13.642;2022-11-11T18:41:44;8.90;1.00
7248;DHT22;3665;51.034;13.642;2022-11-11T18:46:48;9.00;1.00
7248;DHT22;3665;51.034;13.642;2022-11-11T18:51:52;8.90;1.00
7248;DHT22;3665;51.034;13.642;2022-11-11T18:56:57;8.80;1.00
7248;DHT22;3665;51.034;13.642;2022-11-11T19:01:59;9.00;1.00
7248;DHT22;3665;51.034;13.642;2022-11-11T19:07:05;9.00;1.00
7248;DHT22;3665;51.034;13.642;2022-11-11T19:12:08;9.10;1.00
7248;DHT22;3665;51.034;13.642;2022-11-11T19:17:12;9.10;1.00
7248;DHT22;3665;51.034;13.642;2022-11-11T19:22:16;9.10;1.00
7248;DHT22;3665;51.034;13.642;2022-11-11T19:27:21;9.10;1.00
7248;DHT22;3665;51.034;13.642;2022-11-11T19:32:26;8.90;1.00
7248;DHT22;3665;51.034;13.642;2022-11-11T19:37:29;8.80;1.00
7248;DHT22;3665;51.034;13.642;2022-11-11T19:42:31;8.40;1.00
7248;DHT22;3665;51.034;13.642;2022-11-11T19:47:37;8.20;1.00
7248;DHT22;3665;51.034;13.642;2022-11-11T19:52:44;8.40;1.00
7248;DHT22;3665;51.034;13.642;2022-11-11T19:58:04;8.60;1.00
7248;DHT22;3665;51.034;13.642;2022-11-11T20:03:25;8.90;1.00
7248;DHT22;3665;51.034;13.642;2022-11-11T20:08:24;9.10;1.00
7248;DHT22;3665;51.034;13.642;2022-11-11T20:13:26;9.20;1.00
7248;DHT22;3665;51.034;13.642;2022-11-11T20:18:30;9.30;1.00
7248;DHT22;3665;51.034;13.642;2022-11-11T20:28:43;9.20;1.00
7248;DHT22;3665;51.034;13.642;2022-11-11T20:33:48;9.00;1.00
7248;DHT22;3665;51.034;13.642;2022-11-11T20:39:04;8.90;1.00
7248;DHT22;3665;51.034;13.642;2022-11-11T20:44:08;8.90;1.00
7248;DHT22;3665;51.034;13.642;2022-11-11T20:49:12;8.90;1.00
7248;DHT22;3665;51.034;13.642;2022-11-11T20:54:16;8.90;1.00
7248;DHT22;3665;51.034;13.642;2022-11-11T20:59:24;8.90;1.00
7248;DHT22;3665;51.034;13.642;2022-11-11T21:04:45;8.80;1.00
7248;DHT22;3665;51.034;13.642;2022-11-11T21:09:53;8.90;1.00
7248;DHT22;3665;51.034;13.642;2022-11-11T21:15:07;8.90;1.00
7248;DHT22;3665;51.034;13.642;2022-11-11T21:20:10;9.00;1.00
7248;DHT22;3665;51.034;13.642;2022-11-11T21:25:12;9.10;1.00
7248;DHT22;3665;51.034;13.642;2022-11-11T21:30:18;9.00;1.00
7248;DHT22;3665;51.034;13.642;2022-11-11T21:35:20;9.00;1.00
7248;DHT22;3665;51.034;13.642;2022-11-11T21:40:24;9.00;1.00
7248;DHT22;3665;51.034;13.642;2022-11-11T21:45:29;9.20;1.00
7248;DHT22;3665;51.034;13.642;2022-11-11T21:50:32;9.30;1.00
7248;DHT22;3665;51.034;13.642;2022-11-11T21:55:35;9.40;1.00
7248;DHT22;3665;51.034;13.642;2022-11-11T22:00:42;9.40;1.00
7248;DHT22;3665;51.034;13.642;2022-11-11T22:05:45;9.50;1.00
7248;DHT22;3665;51.034;13.642;2022-11-11T22:10:50;9.50;1.00
7248;DHT22;3665;51.034;13.642;2022-11-11T22:16:02;9.40;1.00
7248;DHT22;3665;51.034;13.642;2022-11-11T22:21:38;9.40;1.00
7248;DHT22;3665;51.034;13.642;2022-11-11T22:27:04;9.20;1.00
7248;DHT22;3665;51.034;13.642;2022-11-11T22:32:08;9.30;1.00
7248;DHT22;3665;51.034;13.642;2022-11-11T22:37:12;9.20;1.00
7248;DHT22;3665;51.034;13.642;2022-11-11T22:42:17;9.20;1.00
7248;DHT22;3665;51.034;13.642;2022-11-11T22:47:21;9.20;1.00
7248;DHT22;3665;51.034;13.642;2022-11-11T22:52:24;9.10;1.00
7248;DHT22;3665;51.034;13.642;2022-11-11T22:57:26;9.10;1.00
7248;DHT22;3665;51.034;13.642;2022-11-11T23:02:32;9.10;1.00
7248;DHT22;3665;51.034;13.642;2022-11-11T23:07:34;9.00;1.00
7248;DHT22;3665;51.034;13.642;2022-11-11T23:12:37;9.00;1.00
7248;DHT22;3665;51.034;13.642;2022-11-11T23:17:42;9.00;1.00
7248;DHT22;3665;51.034;13.642;2022-11-11T23:22:44;8.90;1.00
7248;DHT22;3665;51.034;13.642;2022-11-11T23:27:49;8.90;1.00
7248;DHT22;3665;51.034;13.642;2022-11-11T23:33:18;8.90;1.00
7248;DHT22;3665;51.034;13.642;2022-11-11T23:39:19;8.80;1.00
7248;DHT22;3665;51.034;13.642;2022-11-11T23:44:43;8.90;1.00
7248;DHT22;3665;51.034;13.642;2022-11-11T23:50:07;8.90;1.00
7248;DHT22;3665;51.034;13.642;2022-11-11T23:55:10;8.90;1.00
